Impacts TAF Board
For situational awareness. Not to be used for flight planning purposes.
IDs:

KMCO - Orlando Intl, FL, US

Issued at 0258 UTC 10 Dec 2018
Updated at 0515 UTC 10 Dec 2018
Potential Impact None Slight Moderate High
Time<<11/06Z 11/07Z 11/08Z 11/09Z 11/10Z 11/11Z 11/12Z 11/13Z 11/14Z 11/15Z 11/16Z 11/17Z 11/18Z
Type
VIS
CIG
Cover
FltCat
WX
WDir
WSpd
WGst
Raw TAF
KMCO 100258Z 1003/1106 27007KT P6SM SCT015 BKN025
  TEMPO 1008/1012 FEW008 BKN015
  FM101500 29012KT P6SM SCT025 BKN035
  FM110000 31007KT P6SM FEW025


METAR Board
Radar Display
Forecast Discussion
For situational awareness. Not to be used for flight planning purposes.